KRNT

Details ICAO KRNT (RNT)
Name Renton Muni
Region United States
Timezone America/Los_Angeles (UTC-7.0)
Plans Departing 213
Arriving 87
Stats Elevation 32 ft / 10 m (AMSL)
Location 47.493100° -122.216000°
Runways 1
Magnetic Variation 15.498° E
Sunrise 2019-03-22 14:09:20 UTC / 2019-03-22 07:09:20 Local
Sunset 2019-03-23 02:24:43 UTC / 2019-03-22 19:24:43 Local
Advertisement - Login to hide

Runways

ID Width Length Bearing (true/mag) Surface Threshold Overrun Markings Lighting
16 200 ft / 61 m 5,391 ft / 1,643 m 174.17° / 158.67° ASPHALT 312 ft / 95 m 0 ft / 0 m APP CENTERLINE EDGE THRESHOLD MALSF
34 200 ft / 61 m 5,391 ft / 1,643 m 354.17° / 338.67° ASPHALT 351 ft / 107 m 161 ft / 49 m APP CENTERLINE EDGE THRESHOLD MALSF

Map

Weather


0- 5 10 15 20 25 30 35+ Temperature / °C

Clouds and Precipitation
Forecast for 2019-03-23 06:00 UTC. Updated 3 hours ago

Ground ~20,000 ft ~40,000 ft Winds

METAR

KRNT 230553Z AUTO 17007KT 10SM FEW020 BKN075 OVC100 11/07 A3005 RMK AO2 SLP182 60000 T01110072 10144 20111 51024

TAF

Not found

Frequencies

Unicom 124.70 MHz CTAF
Approach 125.90 MHz SEATTLE APP/DEP
Approach 119.20 MHz SEATTLE APP/DEP
Approach 120.10 MHz SEATTLE APP/DEP
Approach 120.40 MHz SEATTLE APP/DEP
Tower 124.70 MHz
Unicom 122.85 MHz UNICOM
Unicom 122.95 MHz UNICOM
Ground 121.60 MHz
Recorded 126.95 MHz ATIS
Warning: Do not use this data for real-world aviation or navigation. No guarantee of current accuracy is given.